PDT,Max TemperatureF,Mean TemperatureF,Min TemperatureF,Max Dew PointF,MeanDew PointF,Min DewpointF,Max Humidity, Mean Humidity, Min Humidity, Max Sea Level PressureIn, Mean Sea Level PressureIn, Min Sea Level PressureIn, Max VisibilityMiles, Mean VisibilityMiles, Min VisibilityMiles, Max Wind SpeedMPH, Mean Wind SpeedMPH, Max Gust SpeedMPH,PrecipitationIn, CloudCover, Events, WindDirDegrees
2013-8-1,87,72,57,54,49,43,88,46,21,30.04,29.96,29.89,10,6,3,14,5,,0.00,2,,253
2013-8-2,87,73,59,55,50,46,82,42,24,29.97,29.93,29.89,10,7,4,13,4,,0.00,4,,251
2013-8-3,89,74,59,55,50,37,77,43,16,30.00,29.96,29.91,10,8,4,14,4,,0.00,2,,260
2013-8-4,91,76,62,57,48,36,77,37,14,30.02,29.97,29.92,10,8,5,14,5,16,0.00,1,,254
2013-8-5,93,76,60,55,44,32,72,32,12,30.01,29.96,29.91,10,9,6,16,4,,0.00,1,,258
2013-8-6,89,73,57,55,44,34,88,37,14,30.04,30.00,29.96,10,7,4,16,5,,0.00,0,,251
2013-8-7,91,75,59,54,45,32,68,36,14,30.08,30.03,29.97,10,8,5,10,4,,0.00,2,,253
2013-8-8,89,73,57,48,41,34,63,29,15,30.00,29.95,29.89,10,10,10,13,4,,0.00,1,,256
2013-8-9,87,72,57,54,47,37,77,41,19,29.96,29.93,29.89,10,9,7,13,4,,0.00,0,,240
2013-8-10,86,72,57,55,48,41,82,44,20,30.04,29.99,29.94,10,7,4,13,5,,0.00,0,,243
2013-8-11,89,74,59,54,48,41,72,38,18,30.00,29.94,29.88,10,10,7,13,4,,0.00,0,,257
2013-8-12,93,76,59,55,48,39,68,39,15,29.98,29.94,29.88,10,7,5,12,3,,0.00,0,,250
2013-8-13,96,78,60,66,52,43,94,42,16,29.99,29.92,29.78,10,6,2,12,3,,0.00,1,Rain,254
2013-8-14,102,81,60,57,51,39,77,37,11,29.94,29.88,29.81,10,8,5,15,5,,0.00,0,,240
2013-8-15,100,83,66,57,48,39,73,29,14,29.95,29.91,29.87,10,9,5,17,5,,0.00,0,,248
2013-8-16,98,83,68,54,48,43,56,28,16,29.97,29.94,29.90,10,9,7,14,5,,0.00,0,,256
2013-8-17,100,84,68,54,48,45,60,28,15,29.97,29.88,29.81,10,10,7,14,5,,0.00,0,,247
2013-8-18,100,84,69,54,50,46,53,29,17,29.88,29.85,29.81,10,10,10,16,5,,0.00,0,,251
2013-8-19,95,82,68,57,56,54,68,41,26,29.94,29.90,29.84,10,9,5,14,5,,0.00,3,,234
2013-8-20,96,81,66,57,50,43,73,34,16,29.93,29.89,29.84,10,9,7,13,4,,0.00,1,,249
2013-8-21,102,86,69,52,44,37,53,23,11,29.93,29.88,29.83,10,10,10,14,4,,0.00,1,,248
2013-8-22,100,84,68,46,40,34,43,20,11,29.96,29.88,29.81,10,10,10,14,4,,0.00,2,,252
2013-8-23,100,82,64,46,40,34,45,21,11,29.88,29.81,29.74,10,10,10,13,4,,0.00,0,,261
2013-8-24,98,80,62,48,39,32,59,21,10,29.94,29.82,29.76,10,10,10,16,5,,0.00,1,,245
2013-8-25,98,84,69,61,49,36,56,28,13,29.93,29.89,29.84,10,10,10,17,5,23,0.00,1,,221
2013-8-26,87,80,73,63,58,55,53,42,33,29.96,29.91,29.84,10,10,10,12,2,,0.00,5,,121
2013-8-27,96,84,73,57,55,50,57,33,25,29.87,29.82,29.77,10,10,10,17,4,23,0.00,2,,251
2013-8-28,98,84,71,54,53,52,53,30,21,29.89,29.85,29.81,10,10,10,16,4,16,0.00,1,,253
2013-8-29,98,84,71,63,58,54,57,34,23,29.97,29.93,29.91,10,10,10,16,3,,0.00,4,,238
2013-8-30,93,85,77,72,64,59,78,49,34,30.01,29.97,29.94,10,10,10,10,3,,0.00,5,,165
2013-8-31,93,85,77,70,65,61,78,51,34,30.01,29.95,29.89,10,10,10,15,3,,0.00,6,,251